Knoxville, Illinois
Current Conditions -  °F | °C
As of 12:55 PM on Monday 20 Oct 2014 (Local Time) from KGBG Reporting Station
Clear Clear  
Wind Chill: 64°   Ceiling: Unl
Heat Index: 64°   Visibility: 10mi
Dew Point: 44°   Wind: 18mph
Humidity: 48%   Direction: 330°NNW
Pressure: 29.94"   Gusts: 25mph
Location:  40.91°N, 90.28°W
Report Text: KGBG 201755Z AUTO 33016G22KT 10SM CLR 18/07 A2994 RMK AO2 T01790068 10180 20077
Loading
Personal Weather Stations






























Interactive Weather Map
Tropical Storm Tracking
New forecast layout! Learn more

10-Day Weather Forecast

Advertisements
Track Severe Weather on mobile